Del Rio, Texas
Current Conditions -  °F | °C
As of 2:53 AM on Wednesday 26 Nov 2014 (Local Time) from KDRT Reporting Station
Clear Clear  
Wind Chill: 39°   Ceiling: Unl
Heat Index: 43°   Visibility: 10mi
Dew Point: 31°   Wind: 6mph
Humidity: 62%   Direction: 50°NE
Pressure: 30.2"   Gusts: NA
Location:  29.37°N, 100.89°W
Report Text: KDRT 260853Z AUTO 05005KT 10SM CLR 06/M01 A3020 RMK AO2 SLP220 T00611006 58001
Loading
Personal Weather Stations






























Interactive Weather Map New forecast layout! Learn more

10-Day Weather Forecast

Advertisements
Track Severe Weather on mobile